Eilat, Israel

3:15 PM IDT on August 28, 2014 (GMT +0300)
Aqaba International | Change Station
CLOSE
Current Station
Airport
Location: Aqaba,
Elevation: 174 ft
Nearby Weather Stations

Elev 174 ft 29.61 °N, 35.02 °E | Updated 15 minutes ago

Clear
Clear
102 °F
Feels Like 101 °F
N
5
Wind Variable Wind from NNE

Today
High -- | Low -- °F
--% Chance of Precip.
Yesterday
High -- | Low -- °F
Precip. -- in
6:15 AM 7:07 PM
Waxing Crescent, 8% visible
Pressure 29.68 in
Visibility -9999.0 miles
Clouds
Heat Index 101 °F
Dew Point 57 °F
Humidity 22%
Rainfall 0.00 in
Snow Depth Not available.
UV Not available.
Pollen Not available.
Air Quality Not available.
Flu Activity Not available.
METAR OJAQ 281200Z 03004KT CAVOK 39/14 Q1005 NOSIG

More Conditions Fewer Conditions

Pressure 29.68 in
Visibility -9999.0 miles
Clouds
Heat Index 101 °F
Dew Point 57 °F
Humidity 22%
Rainfall 0.00 in
Snow Depth Not available.
UV Not available.
Pollen Not available.
Air Quality Not available.
Flu Activity Not available.
METAR OJAQ 281200Z 03004KT CAVOK 39/14 Q1005 NOSIG

More Conditions Fewer Conditions

10-Day Weather Forecast

Almanac

Astronomy

Aug. 28, 2014 Rise Set
Actual Time 6:15 AM IDT 7:07 PM IDT
Civil Twilight 5:50 AM IDT 7:31 PM IDT
Nautical Twilight 5:22 AM IDT 8:00 PM IDT
Astronomical Twilight 4:52 AM IDT 8:29 PM IDT
Moon 8:33 AM IDT 8:36 PM IDT
Length of Visible Light 13h 40m
Length of Day
12h 52m
Tomorrow will be 1m 41s shorter.
Waxing Crescent, 8% of the Moon is Illuminated
Today
Waxing Crescent
Sep 2
First Quarter
Sep 8
Full
Sep 15
Last Quarter
Sep 24
New

Yesterday's Extremes

Country Highs Country Lows

Community

WunderPhotos

Upload Photos

1,747,932 photos uploaded!

Nearby

Snow Depth

Not available.

Earthquake Activity

City Distance Mag. Time & Date
No recent earthquake activity has been reported nearby.
Minimum magnitude displayed is 2.5.

Coastal Water Temperatures

Place Temperature
No Stations Reporting

Nearby Weather Stations